createdAt,value
2023-03-31T00:00:17.617Z,0.50
2023-03-31T00:01:17.594Z,0.50
2023-03-31T00:02:17.625Z,0.41
2023-03-31T00:03:17.664Z,0.36
2023-03-31T00:04:17.721Z,0.35
2023-03-31T00:05:17.559Z,0.35
2023-03-31T00:06:17.546Z,0.37
2023-03-31T00:07:17.544Z,0.41
2023-03-31T00:08:17.537Z,0.44
2023-03-31T00:09:17.531Z,0.48
2023-03-31T00:10:18.785Z,0.50
2023-03-31T00:11:17.510Z,0.50
2023-03-31T00:12:17.537Z,0.50
2023-03-31T00:13:17.511Z,0.50
2023-03-31T00:14:17.487Z,0.50
2023-03-31T00:15:17.489Z,0.50
2023-03-31T00:16:17.531Z,0.51
2023-03-31T00:17:17.467Z,0.50
2023-03-31T00:18:18.353Z,0.50
2023-03-31T00:19:17.809Z,0.51
2023-03-31T00:20:17.436Z,0.50
2023-03-31T00:21:17.436Z,0.51
2023-03-31T00:22:17.442Z,0.50
2023-03-31T00:23:17.444Z,0.50
2023-03-31T00:24:17.466Z,0.50
2023-03-31T00:25:17.471Z,0.50
2023-03-31T00:26:17.479Z,0.50
2023-03-31T00:27:17.492Z,0.50
2023-03-31T00:28:17.511Z,0.51
2023-03-31T00:29:17.510Z,0.51
2023-03-31T00:30:17.493Z,0.50
2023-03-31T00:31:17.531Z,0.51
2023-03-31T00:32:17.495Z,0.50
2023-03-31T00:33:17.526Z,0.50
2023-03-31T00:34:17.516Z,0.50
2023-03-31T00:35:17.557Z,0.51
2023-03-31T00:36:17.612Z,0.51
2023-03-31T00:37:17.569Z,0.50
2023-03-31T00:38:17.595Z,0.50
2023-03-31T00:39:17.593Z,0.51
2023-03-31T00:40:17.613Z,0.51
2023-03-31T00:41:17.639Z,0.52
2023-03-31T00:42:17.637Z,0.51
2023-03-31T00:43:17.677Z,0.51
2023-03-31T00:44:17.700Z,0.50
2023-03-31T00:45:17.680Z,0.51
2023-03-31T00:46:17.798Z,0.52
2023-03-31T00:47:17.668Z,0.51
2023-03-31T00:48:17.693Z,0.51
2023-03-31T00:49:17.694Z,0.50
2023-03-31T00:50:17.713Z,0.50
2023-03-31T00:51:17.728Z,0.51
2023-03-31T00:52:17.747Z,0.51
2023-03-31T00:53:17.784Z,0.51
2023-03-31T00:54:17.779Z,0.50
2023-03-31T00:55:17.804Z,0.51
2023-03-31T00:56:17.817Z,0.51
2023-03-31T00:57:17.873Z,0.50
2023-03-31T00:58:17.816Z,0.52
2023-03-31T00:59:17.858Z,0.50
2023-03-31T01:00:17.850Z,0.51
2023-03-31T01:01:17.863Z,0.51
2023-03-31T01:02:17.844Z,0.51
2023-03-31T01:03:17.864Z,0.51
2023-03-31T01:04:17.861Z,0.51
2023-03-31T01:05:17.870Z,0.51
2023-03-31T01:06:17.879Z,0.50
2023-03-31T01:07:17.902Z,0.50
2023-03-31T01:08:17.917Z,0.50
2023-03-31T01:09:17.948Z,0.50
2023-03-31T01:10:17.967Z,0.51
2023-03-31T01:11:17.974Z,0.51
2023-03-31T01:12:18.005Z,0.51
2023-03-31T01:13:17.997Z,0.52
2023-03-31T01:14:17.999Z,0.51
2023-03-31T01:15:18.002Z,0.51
2023-03-31T01:16:18.032Z,0.50
2023-03-31T01:17:18.073Z,0.51
2023-03-31T01:18:18.067Z,0.51
2023-03-31T01:19:18.049Z,0.51
2023-03-31T01:20:18.058Z,0.50
2023-03-31T01:21:18.049Z,0.51
2023-03-31T01:22:18.059Z,0.51
2023-03-31T01:23:18.063Z,0.51
2023-03-31T01:24:18.050Z,0.50
2023-03-31T01:25:18.066Z,0.51
2023-03-31T01:26:18.085Z,0.51
2023-03-31T01:27:18.109Z,0.51
2023-03-31T01:28:18.137Z,0.51
2023-03-31T01:29:18.128Z,0.51
2023-03-31T01:30:18.137Z,0.52
2023-03-31T01:31:18.175Z,0.51
2023-03-31T01:32:18.196Z,0.51
2023-03-31T01:33:18.182Z,0.51
2023-03-31T01:34:18.222Z,0.50
2023-03-31T01:35:18.238Z,0.50
2023-03-31T01:36:18.256Z,0.51
2023-03-31T01:37:18.275Z,0.51
2023-03-31T01:38:18.286Z,0.51
2023-03-31T01:39:18.305Z,0.51
2023-03-31T01:40:18.319Z,0.52
2023-03-31T01:41:18.780Z,0.51
2023-03-31T01:42:18.356Z,0.51
2023-03-31T01:43:18.392Z,0.51
2023-03-31T01:44:18.409Z,0.51
2023-03-31T01:45:18.426Z,0.51
2023-03-31T01:46:18.459Z,0.51
2023-03-31T01:47:18.438Z,0.52
2023-03-31T01:48:18.494Z,0.51
2023-03-31T01:49:18.450Z,0.51
2023-03-31T01:50:18.449Z,0.51
2023-03-31T01:51:18.466Z,0.52
2023-03-31T01:52:18.528Z,0.51
2023-03-31T01:53:18.511Z,0.51
2023-03-31T01:54:18.533Z,0.52
2023-03-31T01:55:18.581Z,0.52
2023-03-31T01:56:18.594Z,0.51
2023-03-31T01:57:18.619Z,0.51
2023-03-31T01:58:18.624Z,0.51
2023-03-31T01:59:18.637Z,0.51
2023-03-31T02:00:18.661Z,0.51
2023-03-31T02:01:18.704Z,0.50
2023-03-31T02:02:18.744Z,0.51
2023-03-31T02:03:18.841Z,0.51
2023-03-31T02:04:18.754Z,0.51
2023-03-31T02:05:18.777Z,0.52
2023-03-31T02:06:18.763Z,0.52
2023-03-31T02:07:18.759Z,0.52
2023-03-31T02:08:18.777Z,0.52
2023-03-31T02:09:18.799Z,0.51
2023-03-31T02:10:18.826Z,0.51
2023-03-31T02:11:18.846Z,0.51
2023-03-31T02:12:18.887Z,0.51
2023-03-31T02:13:18.952Z,0.51
2023-03-31T02:14:18.958Z,0.52
2023-03-31T02:15:19.000Z,0.51
2023-03-31T02:16:19.186Z,0.50
2023-03-31T02:17:19.040Z,0.51
2023-03-31T02:18:19.063Z,0.51
2023-03-31T02:19:19.084Z,0.50
2023-03-31T02:20:19.140Z,0.51
2023-03-31T02:21:19.133Z,0.52
2023-03-31T02:22:19.152Z,0.52
2023-03-31T02:23:19.135Z,0.51
2023-03-31T02:24:19.133Z,0.51
2023-03-31T02:25:19.131Z,0.51
2023-03-31T02:26:19.136Z,0.50
2023-03-31T02:27:19.155Z,0.51
2023-03-31T02:28:19.141Z,0.51
2023-03-31T02:29:19.126Z,0.51
2023-03-31T02:30:19.131Z,0.50
2023-03-31T02:31:19.194Z,0.51
2023-03-31T02:32:19.148Z,0.51
2023-03-31T02:33:19.158Z,0.51
2023-03-31T02:34:19.146Z,0.50
2023-03-31T02:35:19.168Z,0.51
2023-03-31T02:36:19.460Z,0.51
2023-03-31T02:37:19.174Z,0.51
2023-03-31T02:38:19.186Z,0.51
2023-03-31T02:39:19.197Z,0.51
2023-03-31T02:40:19.207Z,0.51
2023-03-31T02:41:19.237Z,0.51
2023-03-31T02:42:19.243Z,0.51
2023-03-31T02:43:19.232Z,0.51
2023-03-31T02:44:19.231Z,0.51
2023-03-31T02:45:19.239Z,0.50
2023-03-31T02:46:19.361Z,0.51
2023-03-31T02:47:19.277Z,0.51
2023-03-31T02:48:19.271Z,0.51
2023-03-31T02:49:19.294Z,0.51
2023-03-31T02:50:19.318Z,0.51
2023-03-31T02:51:19.332Z,0.51
2023-03-31T02:52:19.372Z,0.50
2023-03-31T02:53:19.355Z,0.50
2023-03-31T02:54:19.363Z,0.51
2023-03-31T02:55:19.379Z,0.51
2023-03-31T02:56:19.405Z,0.51
2023-03-31T02:57:19.442Z,0.51
2023-03-31T02:58:19.413Z,0.51
2023-03-31T02:59:19.433Z,0.50
2023-03-31T03:00:19.502Z,0.52
2023-03-31T03:01:19.574Z,0.51
2023-03-31T03:02:19.559Z,0.51
2023-03-31T03:03:19.581Z,0.51
2023-03-31T03:04:19.479Z,0.50
2023-03-31T03:05:19.479Z,0.51
2023-03-31T03:06:19.502Z,0.51
2023-03-31T03:07:19.490Z,0.52
2023-03-31T03:08:19.528Z,0.50
2023-03-31T03:09:19.507Z,0.51
2023-03-31T03:10:19.517Z,0.52
2023-03-31T03:11:19.520Z,0.52
2023-03-31T03:12:19.525Z,0.52
2023-03-31T03:13:19.530Z,0.51
2023-03-31T03:14:19.524Z,0.51
2023-03-31T03:15:19.527Z,0.51
2023-03-31T03:16:19.605Z,0.51
2023-03-31T03:17:19.552Z,0.50
2023-03-31T03:18:19.559Z,0.50
2023-03-31T03:19:19.557Z,0.50
2023-03-31T03:20:19.579Z,0.50
2023-03-31T03:21:19.596Z,0.50
2023-03-31T03:22:19.617Z,0.51
2023-03-31T03:23:19.635Z,0.51
2023-03-31T03:24:19.665Z,0.51
2023-03-31T03:25:19.658Z,0.51
2023-03-31T03:26:19.664Z,0.51
2023-03-31T03:27:19.659Z,0.51
2023-03-31T03:28:19.665Z,0.51
2023-03-31T03:29:19.677Z,0.51
2023-03-31T03:30:19.677Z,0.51
2023-03-31T03:31:19.690Z,0.51
2023-03-31T03:32:19.664Z,0.50
2023-03-31T03:33:19.686Z,0.52
2023-03-31T03:34:19.707Z,0.52
2023-03-31T03:35:19.721Z,0.51
2023-03-31T03:36:19.749Z,0.51
2023-03-31T03:37:19.702Z,0.51
2023-03-31T03:38:19.694Z,0.51
2023-03-31T03:39:19.705Z,0.52
2023-03-31T03:40:19.735Z,0.51
2023-03-31T03:41:19.744Z,0.50
2023-03-31T03:42:19.709Z,0.51
2023-03-31T03:43:19.705Z,0.50
2023-03-31T03:44:19.703Z,0.52
2023-03-31T03:45:19.706Z,0.50
2023-03-31T03:46:19.736Z,0.51
2023-03-31T03:47:19.693Z,0.50
2023-03-31T03:48:19.754Z,0.52
2023-03-31T03:49:19.699Z,0.52
2023-03-31T03:50:19.691Z,0.51
2023-03-31T03:51:19.678Z,0.51
2023-03-31T03:52:19.672Z,0.51
2023-03-31T03:53:19.667Z,0.52
2023-03-31T03:54:19.687Z,0.51
2023-03-31T03:55:19.650Z,0.52
2023-03-31T03:56:19.672Z,0.51
2023-03-31T03:57:19.661Z,0.51
2023-03-31T03:58:19.644Z,0.51
2023-03-31T03:59:19.629Z,0.51
2023-03-31T04:00:19.666Z,0.51
2023-03-31T04:01:19.663Z,0.51
2023-03-31T04:02:19.739Z,0.51
2023-03-31T04:03:19.784Z,0.51
2023-03-31T04:04:19.714Z,0.51
2023-03-31T04:05:19.773Z,0.51
2023-03-31T04:06:19.718Z,0.51
2023-03-31T04:07:19.716Z,0.51
2023-03-31T04:08:19.709Z,0.52
2023-03-31T04:09:19.712Z,0.52
2023-03-31T04:10:19.729Z,0.52
2023-03-31T04:11:19.754Z,0.52
2023-03-31T04:12:19.790Z,0.52
2023-03-31T04:13:19.781Z,0.51
2023-03-31T04:14:19.772Z,0.52
2023-03-31T04:15:19.784Z,0.52
2023-03-31T04:16:19.810Z,0.51
2023-03-31T04:17:19.784Z,0.52
2023-03-31T04:18:19.790Z,0.51
2023-03-31T04:19:19.801Z,0.52
2023-03-31T04:20:19.801Z,0.52
2023-03-31T04:21:19.799Z,0.51
2023-03-31T04:22:19.825Z,0.52
2023-03-31T04:23:19.802Z,0.53
2023-03-31T04:24:21.089Z,0.52
2023-03-31T04:25:19.806Z,0.52
2023-03-31T04:26:19.784Z,0.53
2023-03-31T04:27:19.776Z,0.52
2023-03-31T04:28:19.793Z,0.52
2023-03-31T04:29:19.768Z,0.53
2023-03-31T04:30:19.759Z,0.52
2023-03-31T04:31:19.772Z,0.52
2023-03-31T04:32:19.747Z,0.52
2023-03-31T04:33:19.731Z,0.52
2023-03-31T04:34:19.728Z,0.52
2023-03-31T04:35:19.718Z,0.52
2023-03-31T04:36:19.713Z,0.52
2023-03-31T04:37:19.713Z,0.53
2023-03-31T04:38:19.697Z,0.52
2023-03-31T04:39:19.694Z,0.52
2023-03-31T04:40:19.705Z,0.53
2023-03-31T04:41:19.680Z,0.53
2023-03-31T04:42:19.670Z,0.52
2023-03-31T04:43:19.661Z,0.52
2023-03-31T04:44:19.683Z,0.53
2023-03-31T04:45:19.647Z,0.52
2023-03-31T04:46:19.718Z,0.52
2023-03-31T04:47:19.632Z,0.52
2023-03-31T04:48:19.623Z,0.53
2023-03-31T04:49:19.616Z,0.53
2023-03-31T04:50:19.611Z,0.53
2023-03-31T04:51:19.647Z,0.52
2023-03-31T04:52:19.597Z,0.52
2023-03-31T04:53:19.588Z,0.53
2023-03-31T04:54:19.586Z,0.53
2023-03-31T04:55:19.587Z,0.51
2023-03-31T04:56:19.574Z,0.53
2023-03-31T04:57:19.598Z,0.52
2023-03-31T04:58:19.615Z,0.51
2023-03-31T04:59:19.551Z,0.52
2023-03-31T05:00:19.582Z,0.51
2023-03-31T05:01:19.551Z,0.52
2023-03-31T05:02:19.557Z,0.52
2023-03-31T05:03:19.623Z,0.52
2023-03-31T05:04:19.508Z,0.52
2023-03-31T05:05:19.528Z,0.52
2023-03-31T05:06:19.507Z,0.51
2023-03-31T05:07:19.499Z,0.52
2023-03-31T05:08:19.516Z,0.53
2023-03-31T05:09:19.496Z,0.52
2023-03-31T05:10:19.511Z,0.51
2023-03-31T05:11:19.477Z,0.51
2023-03-31T05:12:19.486Z,0.51
2023-03-31T05:13:19.471Z,0.51
2023-03-31T05:14:19.469Z,0.52
2023-03-31T05:15:19.451Z,0.51
2023-03-31T05:16:19.520Z,0.51
2023-03-31T05:17:19.452Z,0.52
2023-03-31T05:18:19.440Z,0.51
2023-03-31T05:19:19.426Z,0.51
2023-03-31T05:20:19.415Z,0.51
2023-03-31T05:21:19.418Z,0.52
2023-03-31T05:22:19.471Z,0.51
2023-03-31T05:23:19.399Z,0.51
2023-03-31T05:24:19.384Z,0.51
2023-03-31T05:25:19.374Z,0.52
2023-03-31T05:26:19.373Z,0.52
2023-03-31T05:27:19.369Z,0.51
2023-03-31T05:28:19.957Z,0.53
2023-03-31T05:29:19.350Z,0.52
2023-03-31T05:30:19.345Z,0.51
2023-03-31T05:31:19.356Z,0.52
2023-03-31T05:32:19.350Z,0.52
2023-03-31T05:33:19.465Z,0.52
2023-03-31T05:34:19.314Z,0.52
2023-03-31T05:35:19.306Z,0.52
2023-03-31T05:36:19.489Z,0.52
2023-03-31T05:37:19.291Z,0.51
2023-03-31T05:38:19.292Z,0.51
2023-03-31T05:39:19.291Z,0.52
2023-03-31T05:40:19.339Z,0.52
2023-03-31T05:41:19.459Z,0.51
2023-03-31T05:42:19.368Z,0.53
2023-03-31T05:43:19.463Z,0.54
2023-03-31T05:44:19.463Z,0.54
2023-03-31T05:45:19.348Z,0.55
2023-03-31T05:46:19.412Z,0.55
2023-03-31T05:47:19.323Z,0.56
2023-03-31T05:48:19.344Z,0.59
2023-03-31T05:49:19.462Z,0.57
2023-03-31T05:50:19.316Z,0.58
2023-03-31T05:51:19.290Z,0.61
2023-03-31T05:52:19.453Z,0.67
2023-03-31T05:53:19.465Z,0.70
2023-03-31T05:54:35.135Z,0.77
2023-03-31T05:55:19.259Z,0.78
2023-03-31T05:56:19.255Z,0.79
2023-03-31T05:57:19.339Z,0.82
2023-03-31T05:58:19.546Z,0.91
2023-03-31T05:59:20.373Z,1.04
2023-03-31T06:00:20.224Z,1.17
2023-03-31T06:01:19.230Z,1.16
2023-03-31T06:02:19.275Z,1.17
2023-03-31T06:03:19.489Z,1.17
2023-03-31T06:04:19.356Z,1.21
2023-03-31T06:05:19.328Z,1.02
2023-03-31T06:06:19.409Z,1.13
2023-03-31T06:07:19.441Z,1.13
2023-03-31T06:08:20.001Z,1.12
2023-03-31T06:09:19.567Z,1.15
2023-03-31T06:10:19.616Z,1.23
2023-03-31T06:11:19.694Z,1.23
2023-03-31T06:12:19.748Z,1.25
2023-03-31T06:13:19.966Z,1.30
2023-03-31T06:14:19.862Z,1.28
2023-03-31T06:15:19.914Z,1.40
2023-03-31T06:16:20.022Z,1.43
2023-03-31T06:17:20.024Z,1.50
2023-03-31T06:18:20.472Z,1.57
2023-03-31T06:19:20.094Z,1.64
2023-03-31T06:20:27.780Z,1.77
2023-03-31T06:21:20.205Z,1.78
2023-03-31T06:22:20.114Z,1.82
2023-03-31T06:23:20.103Z,1.80
2023-03-31T06:24:20.105Z,1.40
2023-03-31T06:25:20.087Z,1.28
2023-03-31T06:26:20.088Z,1.09
2023-03-31T06:27:20.085Z,0.94
2023-03-31T06:28:20.480Z,0.83
2023-03-31T06:29:20.066Z,0.84
2023-03-31T06:30:20.051Z,0.79
2023-03-31T06:31:20.105Z,0.81
2023-03-31T06:32:20.043Z,0.70
2023-03-31T06:33:20.473Z,0.75
2023-03-31T06:34:21.603Z,0.93
2023-03-31T06:35:20.249Z,1.03
2023-03-31T06:36:20.368Z,1.08
2023-03-31T06:37:20.283Z,1.09
2023-03-31T06:38:20.318Z,1.08
2023-03-31T06:39:20.328Z,1.13
2023-03-31T06:40:20.481Z,1.17
2023-03-31T06:41:20.486Z,1.21
2023-03-31T06:42:20.352Z,1.23
2023-03-31T06:43:20.477Z,1.28
2023-03-31T06:44:20.488Z,1.34
2023-03-31T06:45:20.554Z,1.38
2023-03-31T06:46:20.768Z,1.43
2023-03-31T06:47:20.661Z,1.50
2023-03-31T06:48:21.109Z,1.59
2023-03-31T06:49:20.716Z,1.67
2023-03-31T06:50:20.739Z,1.71
2023-03-31T06:51:29.245Z,1.73
2023-03-31T06:52:20.762Z,1.73
2023-03-31T06:53:28.377Z,1.74
2023-03-31T06:54:20.810Z,1.73
2023-03-31T06:55:20.745Z,1.39
2023-03-31T06:56:20.742Z,1.57
2023-03-31T06:57:20.771Z,1.13
2023-03-31T06:58:21.030Z,1.29
2023-03-31T06:59:20.991Z,1.21
2023-03-31T07:00:23.008Z,1.47
2023-03-31T07:01:20.731Z,1.47
2023-03-31T07:02:20.778Z,1.48
2023-03-31T07:03:20.775Z,1.51
2023-03-31T07:04:20.985Z,1.29
2023-03-31T07:05:20.700Z,1.44
2023-03-31T07:06:20.675Z,1.27
2023-03-31T07:07:20.682Z,1.32
2023-03-31T07:08:20.981Z,1.46
2023-03-31T07:09:20.640Z,1.48
2023-03-31T07:10:20.632Z,1.47
2023-03-31T07:11:21.099Z,1.43
2023-03-31T07:12:20.633Z,1.45
2023-03-31T07:13:20.616Z,1.46
2023-03-31T07:14:20.608Z,1.47
2023-03-31T07:15:20.617Z,1.43
2023-03-31T07:16:20.641Z,1.47
2023-03-31T07:17:20.589Z,1.46
2023-03-31T07:18:20.984Z,1.47
2023-03-31T07:19:20.567Z,1.46
2023-03-31T07:20:20.563Z,1.45
2023-03-31T07:21:20.553Z,1.48
2023-03-31T07:22:20.549Z,1.45
2023-03-31T07:23:21.039Z,1.45
2023-03-31T07:24:20.652Z,1.46
2023-03-31T07:25:20.717Z,1.45
2023-03-31T07:26:20.774Z,1.51
2023-03-31T07:27:20.823Z,1.49
2023-03-31T07:28:20.993Z,1.50
2023-03-31T07:29:20.952Z,1.50
2023-03-31T07:30:20.996Z,1.48
2023-03-31T07:31:21.055Z,1.50
2023-03-31T07:32:21.110Z,1.37
2023-03-31T07:33:21.497Z,0.88
2023-03-31T07:34:21.148Z,0.75
2023-03-31T07:35:21.159Z,0.78
2023-03-31T07:36:21.836Z,0.83
2023-03-31T07:37:21.232Z,0.90
2023-03-31T07:38:21.497Z,0.97
2023-03-31T07:39:21.547Z,0.99
2023-03-31T07:40:21.500Z,1.00
2023-03-31T07:41:21.406Z,1.05
2023-03-31T07:42:21.404Z,1.08
2023-03-31T07:43:21.398Z,1.12
2023-03-31T07:44:21.507Z,1.17
2023-03-31T07:45:21.501Z,1.20
2023-03-31T07:46:21.468Z,1.21
2023-03-31T07:47:21.417Z,1.27
2023-03-31T07:48:21.480Z,1.33
2023-03-31T07:49:22.011Z,1.40
2023-03-31T07:50:21.604Z,1.43
2023-03-31T07:51:21.647Z,1.47
2023-03-31T07:52:21.715Z,1.51
2023-03-31T07:53:21.756Z,1.57
2023-03-31T07:54:22.029Z,1.64
2023-03-31T07:55:22.022Z,1.65
2023-03-31T07:56:21.821Z,1.66
2023-03-31T07:57:21.865Z,1.74
2023-03-31T07:58:22.002Z,1.74
2023-03-31T07:59:21.900Z,1.78
2023-03-31T08:00:21.922Z,1.87
2023-03-31T08:01:21.916Z,1.91
2023-03-31T08:02:22.010Z,1.96
2023-03-31T08:03:22.049Z,2.01
2023-03-31T08:04:22.024Z,2.01
2023-03-31T08:05:21.987Z,2.06
2023-03-31T08:06:22.007Z,2.10
2023-03-31T08:07:22.029Z,2.15
2023-03-31T08:08:22.514Z,2.21
2023-03-31T08:09:22.510Z,2.31
2023-03-31T08:10:22.096Z,2.34
2023-03-31T08:11:22.573Z,2.37
2023-03-31T08:12:22.509Z,2.37
2023-03-31T08:13:22.151Z,2.41
2023-03-31T08:14:34.190Z,2.50
2023-03-31T08:15:22.168Z,2.51
2023-03-31T08:16:22.195Z,2.53
2023-03-31T08:17:22.142Z,2.57
2023-03-31T08:18:22.129Z,2.68
2023-03-31T08:19:22.144Z,2.80
2023-03-31T08:20:22.122Z,2.94
2023-03-31T08:21:24.337Z,2.99
2023-03-31T08:22:22.102Z,3.00
2023-03-31T08:23:22.095Z,3.01
2023-03-31T08:24:22.087Z,3.03
2023-03-31T08:25:22.089Z,3.14
2023-03-31T08:26:22.513Z,3.24
2023-03-31T08:27:22.091Z,3.28
2023-03-31T08:28:22.051Z,3.38
2023-03-31T08:29:22.047Z,3.34
2023-03-31T08:30:22.475Z,3.50
2023-03-31T08:31:22.529Z,3.53
2023-03-31T08:32:22.042Z,3.53
2023-03-31T08:33:22.027Z,3.55
2023-03-31T08:34:22.010Z,3.67
2023-03-31T08:35:22.009Z,3.88
2023-03-31T08:36:22.060Z,3.91
2023-03-31T08:37:22.015Z,4.06
2023-03-31T08:38:21.983Z,4.08
2023-03-31T08:39:21.980Z,4.26
2023-03-31T08:40:21.974Z,4.29
2023-03-31T08:41:21.964Z,4.45
2023-03-31T08:42:22.017Z,4.47
2023-03-31T08:43:21.985Z,4.61
2023-03-31T08:44:21.946Z,4.54
2023-03-31T08:45:22.042Z,4.77
2023-03-31T08:46:21.978Z,4.77
2023-03-31T08:47:23.084Z,5.17
2023-03-31T08:48:21.931Z,5.02
2023-03-31T08:49:21.924Z,4.98
2023-03-31T08:50:21.922Z,4.94
2023-03-31T08:51:21.908Z,5.08
2023-03-31T08:52:22.024Z,5.17
2023-03-31T08:53:22.008Z,5.19
2023-03-31T08:54:22.662Z,5.44
2023-03-31T08:55:22.005Z,5.51
2023-03-31T08:56:22.064Z,5.45
2023-03-31T08:57:22.593Z,5.52
2023-03-31T08:58:22.199Z,5.50
2023-03-31T08:59:22.553Z,5.48
2023-03-31T09:00:22.322Z,5.18
2023-03-31T09:01:22.319Z,5.13
2023-03-31T09:02:22.634Z,4.93
2023-03-31T09:03:22.393Z,4.84
2023-03-31T09:04:22.536Z,4.34
2023-03-31T09:05:22.299Z,4.45
2023-03-31T09:06:22.541Z,4.37
2023-03-31T09:07:22.310Z,4.19
2023-03-31T09:08:22.337Z,3.79
2023-03-31T09:09:22.354Z,3.97
2023-03-31T09:10:22.542Z,3.82
2023-03-31T09:11:22.406Z,3.39
2023-03-31T09:12:22.427Z,3.13
2023-03-31T09:13:22.527Z,3.07
2023-03-31T09:14:22.476Z,2.87
2023-03-31T09:15:22.574Z,2.97
2023-03-31T09:16:22.557Z,2.91
2023-03-31T09:17:22.577Z,2.86
2023-03-31T09:18:25.331Z,2.84
2023-03-31T09:19:22.555Z,2.93
2023-03-31T09:20:22.566Z,2.81
2023-03-31T09:21:22.712Z,2.79
2023-03-31T09:22:22.527Z,2.77
2023-03-31T09:23:22.533Z,2.72
2023-03-31T09:24:22.565Z,2.69
2023-03-31T09:25:22.520Z,2.71
2023-03-31T09:26:22.571Z,2.67
2023-03-31T09:27:22.519Z,2.68
2023-03-31T09:28:22.558Z,2.63
2023-03-31T09:29:22.536Z,2.52
2023-03-31T09:30:22.481Z,2.52
2023-03-31T09:31:22.545Z,2.53
2023-03-31T09:32:22.549Z,1.64
2023-03-31T09:33:22.473Z,1.87
2023-03-31T09:34:22.545Z,1.97
2023-03-31T09:35:22.601Z,2.18
2023-03-31T09:36:22.577Z,2.22
2023-03-31T09:37:22.433Z,2.01
2023-03-31T09:38:22.609Z,1.97
2023-03-31T09:39:22.446Z,1.94
2023-03-31T09:40:22.461Z,2.03
2023-03-31T09:41:22.413Z,2.09
2023-03-31T09:42:22.407Z,2.14
2023-03-31T09:43:22.540Z,2.22
2023-03-31T09:44:22.413Z,2.30
2023-03-31T09:45:22.395Z,2.42
2023-03-31T09:46:22.800Z,2.57
2023-03-31T09:47:22.575Z,2.59
2023-03-31T09:48:22.346Z,2.65
2023-03-31T09:49:22.643Z,2.57
2023-03-31T09:50:25.416Z,1.64
2023-03-31T09:51:22.328Z,1.50
2023-03-31T09:52:22.332Z,1.48
2023-03-31T09:53:22.309Z,1.65
2023-03-31T09:54:22.721Z,1.84
2023-03-31T09:55:36.088Z,2.08
2023-03-31T09:56:22.297Z,1.66
2023-03-31T09:57:22.287Z,1.72
2023-03-31T09:58:22.279Z,1.76
2023-03-31T09:59:22.265Z,1.82
2023-03-31T10:00:22.294Z,1.91
2023-03-31T10:01:22.436Z,1.91
2023-03-31T10:02:22.254Z,1.85
2023-03-31T10:03:22.292Z,1.91
2023-03-31T10:04:22.288Z,1.83
2023-03-31T10:05:22.548Z,1.85
2023-03-31T10:06:22.215Z,1.87
2023-03-31T10:07:22.202Z,1.86
2023-03-31T10:08:23.192Z,1.80
2023-03-31T10:09:22.191Z,1.81
2023-03-31T10:10:22.551Z,1.81
2023-03-31T10:11:22.240Z,1.78
2023-03-31T10:12:22.173Z,1.77
2023-03-31T10:13:22.181Z,1.81
2023-03-31T10:14:22.168Z,1.84
2023-03-31T10:15:22.563Z,1.84
2023-03-31T10:16:22.648Z,1.85
2023-03-31T10:17:22.139Z,1.89
2023-03-31T10:18:22.228Z,1.93
2023-03-31T10:19:22.203Z,1.94
2023-03-31T10:20:22.556Z,1.97
2023-03-31T10:21:22.118Z,2.05
2023-03-31T10:22:22.107Z,2.15
2023-03-31T10:23:22.090Z,2.17
2023-03-31T10:24:22.095Z,2.26
2023-03-31T10:25:22.565Z,2.22
2023-03-31T10:26:22.072Z,2.23
2023-03-31T10:27:22.565Z,2.21
2023-03-31T10:28:22.074Z,2.18
2023-03-31T10:29:22.067Z,2.17
2023-03-31T10:30:22.560Z,2.21
2023-03-31T10:31:22.128Z,2.17
2023-03-31T10:32:22.052Z,2.14
2023-03-31T10:33:23.368Z,2.13
2023-03-31T10:34:22.271Z,2.15
2023-03-31T10:35:22.610Z,2.13
2023-03-31T10:36:22.281Z,2.11
2023-03-31T10:37:22.282Z,2.10
2023-03-31T10:38:22.296Z,2.08
2023-03-31T10:39:22.557Z,2.02
2023-03-31T10:40:22.307Z,2.06
2023-03-31T10:41:22.354Z,1.99
2023-03-31T10:42:22.349Z,2.03
2023-03-31T10:43:22.368Z,1.94
2023-03-31T10:44:22.381Z,1.90
2023-03-31T10:45:35.741Z,1.86
2023-03-31T10:46:22.425Z,1.87
2023-03-31T10:47:22.418Z,1.88
2023-03-31T10:48:22.388Z,1.92
2023-03-31T10:49:22.373Z,2.04
2023-03-31T10:50:22.565Z,2.14
2023-03-31T10:51:22.395Z,2.17
2023-03-31T10:52:22.568Z,2.16
2023-03-31T10:53:22.354Z,2.14
2023-03-31T10:54:22.335Z,1.61
2023-03-31T10:55:22.345Z,1.12
2023-03-31T10:56:22.339Z,0.89
2023-03-31T10:57:22.362Z,0.78
2023-03-31T10:58:22.298Z,0.81
2023-03-31T10:59:22.296Z,1.00
2023-03-31T11:00:22.302Z,1.08
2023-03-31T11:01:22.311Z,1.12
2023-03-31T11:02:22.405Z,1.19
2023-03-31T11:03:22.414Z,1.27
2023-03-31T11:04:22.266Z,1.32
2023-03-31T11:05:22.257Z,1.38
2023-03-31T11:06:22.580Z,1.37
2023-03-31T11:07:22.267Z,1.39
2023-03-31T11:08:22.234Z,1.43
2023-03-31T11:09:22.231Z,1.44
2023-03-31T11:10:22.234Z,1.50
2023-03-31T11:11:22.576Z,1.51
2023-03-31T11:12:22.236Z,1.56
2023-03-31T11:13:22.200Z,1.61
2023-03-31T11:14:22.184Z,1.68
2023-03-31T11:15:22.211Z,1.71
2023-03-31T11:16:22.732Z,1.85
2023-03-31T11:17:22.220Z,1.88
2023-03-31T11:18:22.159Z,1.94
2023-03-31T11:19:22.157Z,2.00
2023-03-31T11:20:22.151Z,2.04
2023-03-31T11:21:22.571Z,2.13
2023-03-31T11:22:22.136Z,2.28
2023-03-31T11:23:22.161Z,2.33
2023-03-31T11:24:22.133Z,2.46
2023-03-31T11:25:22.579Z,2.52
2023-03-31T11:26:22.575Z,2.51
2023-03-31T11:27:22.137Z,2.64
2023-03-31T11:28:22.149Z,2.68
2023-03-31T11:29:22.164Z,2.81
2023-03-31T11:30:22.574Z,2.80
2023-03-31T11:31:22.166Z,2.98
2023-03-31T11:32:22.146Z,3.11
2023-03-31T11:33:22.148Z,3.11
2023-03-31T11:34:22.140Z,3.23
2023-03-31T11:35:22.161Z,3.14
2023-03-31T11:36:22.200Z,3.19
2023-03-31T11:37:22.133Z,3.25
2023-03-31T11:38:24.045Z,3.29
2023-03-31T11:39:22.159Z,3.41
2023-03-31T11:40:22.116Z,3.58
2023-03-31T11:41:22.577Z,3.57
2023-03-31T11:42:22.092Z,3.69
2023-03-31T11:43:22.085Z,3.58
2023-03-31T11:44:22.086Z,3.81
2023-03-31T11:45:22.074Z,3.77
2023-03-31T11:46:22.149Z,3.86
2023-03-31T11:47:22.068Z,4.04
2023-03-31T11:48:22.055Z,4.08
2023-03-31T11:49:22.051Z,4.15
2023-03-31T11:50:22.046Z,4.24
2023-03-31T11:51:22.058Z,4.41
2023-03-31T11:52:22.080Z,4.64
2023-03-31T11:53:22.020Z,4.61
2023-03-31T11:54:22.010Z,4.80
2023-03-31T11:55:22.060Z,4.90
2023-03-31T11:56:21.999Z,4.89
2023-03-31T11:57:22.042Z,4.85
2023-03-31T11:58:21.986Z,5.06
2023-03-31T11:59:21.977Z,5.08
2023-03-31T12:00:21.979Z,5.15
2023-03-31T12:01:21.972Z,5.37
2023-03-31T12:02:21.963Z,5.36
2023-03-31T12:03:22.171Z,5.49
2023-03-31T12:04:22.064Z,5.48
2023-03-31T12:05:22.162Z,5.57
2023-03-31T12:06:22.344Z,5.67
2023-03-31T12:07:22.263Z,5.70
2023-03-31T12:08:22.308Z,5.75
2023-03-31T12:09:22.378Z,5.66
2023-03-31T12:10:22.435Z,5.83
2023-03-31T12:11:22.550Z,5.78
2023-03-31T12:12:22.577Z,5.84
2023-03-31T12:13:22.633Z,6.05
2023-03-31T12:14:22.703Z,6.15
2023-03-31T12:15:22.755Z,6.05
2023-03-31T12:16:22.918Z,6.03
2023-03-31T12:17:23.189Z,6.14
2023-03-31T12:18:22.952Z,6.21
2023-03-31T12:19:23.007Z,6.15
2023-03-31T12:20:23.072Z,6.33
2023-03-31T12:21:23.139Z,6.45
2023-03-31T12:22:23.204Z,6.31
2023-03-31T12:23:23.339Z,6.43
2023-03-31T12:24:23.337Z,6.42
2023-03-31T12:25:23.381Z,6.26
2023-03-31T12:26:23.452Z,4.69
2023-03-31T12:27:23.643Z,4.84
2023-03-31T12:28:23.583Z,4.83
2023-03-31T12:29:23.590Z,4.83
2023-03-31T12:30:24.615Z,4.72
2023-03-31T12:31:23.684Z,3.47
2023-03-31T12:32:23.642Z,3.07
2023-03-31T12:33:23.645Z,3.24
2023-03-31T12:34:23.681Z,3.27
2023-03-31T12:35:23.723Z,3.29
2023-03-31T12:36:23.770Z,3.34
2023-03-31T12:37:24.106Z,2.99
2023-03-31T12:38:23.812Z,2.42
2023-03-31T12:39:23.815Z,2.20
2023-03-31T12:40:23.858Z,1.63
2023-03-31T12:41:23.907Z,1.50
2023-03-31T12:42:25.122Z,1.89
2023-03-31T12:43:24.028Z,2.23
2023-03-31T12:44:24.046Z,2.20
2023-03-31T12:45:24.091Z,2.20
2023-03-31T12:46:24.170Z,2.08
2023-03-31T12:47:24.669Z,2.07
2023-03-31T12:48:24.216Z,2.07
2023-03-31T12:49:24.235Z,2.08
2023-03-31T12:50:24.275Z,2.07
2023-03-31T12:51:24.320Z,2.07
2023-03-31T12:52:24.620Z,2.15
2023-03-31T12:53:24.366Z,2.12
2023-03-31T12:54:24.387Z,2.10
2023-03-31T12:55:24.402Z,2.13
2023-03-31T12:56:24.416Z,2.19
2023-03-31T12:57:24.666Z,2.19
2023-03-31T12:58:24.431Z,2.24
2023-03-31T12:59:24.481Z,2.25
2023-03-31T13:00:24.464Z,2.30
2023-03-31T13:01:24.519Z,2.27
2023-03-31T13:02:24.713Z,2.31
2023-03-31T13:03:24.507Z,2.29
2023-03-31T13:04:24.486Z,2.30
2023-03-31T13:05:24.496Z,2.27
2023-03-31T13:06:23.497Z,2.31
2023-03-31T13:07:28.899Z,2.37
2023-03-31T13:08:24.495Z,2.38
2023-03-31T13:09:24.505Z,2.39
2023-03-31T13:10:24.507Z,2.40
2023-03-31T13:11:24.472Z,2.45
2023-03-31T13:12:24.465Z,2.49
2023-03-31T13:13:24.454Z,2.50
2023-03-31T13:14:24.467Z,2.47
2023-03-31T13:15:24.460Z,2.47
2023-03-31T13:16:24.448Z,2.55
2023-03-31T13:17:24.613Z,2.53
2023-03-31T13:18:24.414Z,2.64